Time;durP1;ratioP1;P1;durP2;ratioP2;P2;SDS_P1;SDS_P2;PMS_P1;PMS_P2;Temp;Humidity;BMP_temperature;BMP_pressure;BME280_temperature;BME280_humidity;BME280_pressure;Samples;Min_cycle;Max_cycle;Signal;HPM_P1;HPM_P2
2023/02/13 00:01:52;;;;;;;15.27;8.00;;;6.30;99.90;;;;;;5029351;28;20245;-70
2023/02/13 00:04:17;;;;;;;14.50;6.70;;;6.30;99.90;;;;;;5036398;28;20853;-70
2023/02/13 00:06:43;;;;;;;13.93;7.50;;;6.40;99.90;;;;;;5020185;28;20560;-70
2023/02/13 00:09:10;;;;;;;10.70;7.20;;;6.40;99.90;;;;;;5020794;28;20204;-69
2023/02/13 00:11:36;;;;;;;13.80;6.93;;;6.40;99.90;;;;;;5026452;28;20208;-70
2023/02/13 00:14:02;;;;;;;13.17;7.67;;;6.20;99.90;;;;;;5040104;28;20476;-68
2023/02/13 00:16:27;;;;;;;14.00;7.87;;;6.30;99.90;;;;;;5016112;28;20901;-71
2023/02/13 00:18:53;;;;;;;12.10;7.20;;;6.20;99.90;;;;;;5018400;28;20235;-70
2023/02/13 00:21:18;;;;;;;14.17;7.40;;;6.20;99.90;;;;;;5024390;28;20215;-71
2023/02/13 00:23:44;;;;;;;11.90;6.80;;;6.20;99.90;;;;;;5023187;28;20219;-70
2023/02/13 00:26:12;;;;;;;12.37;6.57;;;6.20;99.90;;;;;;5027119;28;20237;-70
2023/02/13 00:28:43;;;;;;;14.77;7.63;;;6.20;99.90;;;;;;5030770;28;20277;-71
2023/02/13 00:31:11;;;;;;;11.27;6.53;;;6.20;99.90;;;;;;5023736;28;20527;-69
2023/02/13 00:33:37;;;;;;;11.40;6.60;;;6.20;99.90;;;;;;5023243;28;20469;-70
2023/02/13 00:36:15;;;;;;;10.70;6.43;;;6.20;99.90;;;;;;5042709;28;20469;-70
2023/02/13 00:38:41;;;;;;;8.07;5.40;;;6.20;99.90;;;;;;5004547;28;20500;-70
2023/02/13 00:41:07;;;;;;;12.77;5.97;;;6.10;99.90;;;;;;5023571;28;20454;-69
2023/02/13 00:43:34;;;;;;;10.90;6.13;;;6.10;99.90;;;;;;5037238;28;20458;-70
2023/02/13 00:46:00;;;;;;;11.03;6.70;;;6.00;99.90;;;;;;5040200;28;20994;-71
2023/02/13 00:48:27;;;;;;;11.50;6.10;;;6.00;99.90;;;;;;5035608;28;20469;-70
2023/02/13 00:50:53;;;;;;;8.50;5.67;;;5.90;99.90;;;;;;5039205;28;20467;-69
2023/02/13 00:53:23;;;;;;;13.20;6.30;;;5.80;99.90;;;;;;5047044;28;20458;-70
2023/02/13 00:55:49;;;;;;;8.53;5.73;;;5.90;99.90;;;;;;5026547;28;20254;-68
2023/02/13 00:58:15;;;;;;;11.67;6.43;;;5.90;99.90;;;;;;5050335;28;20607;-70
2023/02/13 01:00:42;;;;;;;9.23;5.30;;;5.90;99.90;;;;;;5018098;28;20232;-70
2023/02/13 01:03:08;;;;;;;9.30;5.70;;;5.90;99.90;;;;;;5026401;28;20454;-70
2023/02/13 01:05:34;;;;;;;7.07;5.43;;;5.90;99.90;;;;;;5020771;28;20471;-70
2023/02/13 01:08:00;;;;;;;11.87;6.83;;;5.90;99.90;;;;;;5033874;28;20457;-69
2023/02/13 01:10:26;;;;;;;12.27;6.03;;;5.90;99.90;;;;;;5020867;28;20802;-70
2023/02/13 01:12:52;;;;;;;6.33;5.23;;;5.90;99.90;;;;;;5040989;28;20223;-69
2023/02/13 01:15:18;;;;;;;7.17;4.93;;;5.90;99.90;;;;;;5034095;28;20479;-69
2023/02/13 01:17:44;;;;;;;11.70;5.50;;;5.80;99.90;;;;;;5036825;28;20465;-69
2023/02/13 01:20:12;;;;;;;9.97;5.20;;;5.80;99.90;;;;;;5026928;28;20903;-68
2023/02/13 01:22:38;;;;;;;8.00;4.60;;;5.80;99.90;;;;;;5023173;28;20226;-69
2023/02/13 01:25:05;;;;;;;9.30;5.50;;;5.70;99.90;;;;;;5009547;28;20482;-69
2023/02/13 01:27:31;;;;;;;13.53;6.53;;;5.70;99.90;;;;;;5019973;28;21025;-69
2023/02/13 01:29:58;;;;;;;7.47;4.90;;;5.70;99.90;;;;;;5034079;28;20568;-67
2023/02/13 01:32:23;;;;;;;11.93;6.10;;;5.60;99.90;;;;;;5034611;28;20552;-70
2023/02/13 01:34:49;;;;;;;10.77;6.67;;;5.60;99.90;;;;;;5022446;28;20545;-67
2023/02/13 01:37:15;;;;;;;8.73;6.17;;;5.60;99.90;;;;;;5026188;28;20222;-68
2023/02/13 01:39:41;;;;;;;8.90;5.80;;;5.70;99.90;;;;;;5021909;28;20234;-69
2023/02/13 01:42:23;;;;;;;9.53;6.20;;;5.60;99.90;;;;;;5042545;28;20604;-69
2023/02/13 01:44:53;;;;;;;11.70;6.47;;;5.60;99.90;;;;;;5021141;28;20723;-69
2023/02/13 01:47:40;;;;;;;8.53;5.33;;;5.60;99.90;;;;;;5027912;28;20488;-70
2023/02/13 01:50:15;;;;;;;11.30;6.67;;;5.50;99.90;;;;;;5022482;28;20482;-70
2023/02/13 01:52:59;;;;;;;10.73;5.33;;;5.50;99.90;;;;;;5017373;28;20476;-70
2023/02/13 01:55:26;;;;;;;7.10;4.77;;;5.50;99.90;;;;;;5018843;28;20474;-69
2023/02/13 01:57:58;;;;;;;12.63;7.03;;;5.50;99.90;;;;;;5047623;28;20483;-69
2023/02/13 02:00:24;;;;;;;8.67;5.43;;;5.50;99.90;;;;;;5037016;28;20469;-70
2023/02/13 02:02:55;;;;;;;9.97;5.20;;;5.50;99.90;;;;;;5018363;28;20921;-70
2023/02/13 02:05:27;;;;;;;9.53;5.63;;;5.50;99.90;;;;;;5038896;28;20469;-69
2023/02/13 02:07:57;;;;;;;11.70;5.93;;;5.50;99.90;;;;;;5042011;28;20496;-67
2023/02/13 02:10:23;;;;;;;9.00;5.23;;;5.50;99.90;;;;;;5039963;28;20480;-71
2023/02/13 02:12:57;;;;;;;8.33;4.80;;;5.40;99.90;;;;;;5027393;28;20455;-70
2023/02/13 02:15:24;;;;;;;9.03;5.50;;;5.40;99.90;;;;;;5024584;28;20481;-70
2023/02/13 02:17:49;;;;;;;8.27;5.37;;;5.40;99.90;;;;;;5042475;28;20805;-69
2023/02/13 02:20:49;;;;;;;10.57;5.07;;;5.40;99.90;;;;;;5018678;28;20469;-70
2023/02/13 02:23:45;;;;;;;7.33;4.80;;;5.40;99.90;;;;;;5025817;28;20215;-69
2023/02/13 02:26:20;;;;;;;9.90;5.30;;;5.40;99.90;;;;;;5042374;28;20848;-70
2023/02/13 02:29:08;;;;;;;5.80;4.40;;;5.40;99.90;;;;;;5028031;28;20475;-70
2023/02/13 02:31:37;;;;;;;7.93;5.07;;;5.40;99.90;;;;;;5038859;28;20505;-70
2023/02/13 02:34:29;;;;;;;8.73;5.20;;;5.40;99.90;;;;;;5042786;28;20748;-67
2023/02/13 02:37:16;;;;;;;11.00;5.47;;;5.40;99.90;;;;;;4995707;28;20465;-69
2023/02/13 02:39:59;;;;;;;9.20;6.13;;;5.40;99.90;;;;;;5007137;28;20457;-69
2023/02/13 02:43:04;;;;;;;6.83;4.97;;;5.30;99.90;;;;;;5006605;28;20471;-69
2023/02/13 02:45:39;;;;;;;8.77;5.27;;;5.30;99.90;;;;;;5045256;28;20463;-69
2023/02/13 02:51:10;;;;;;;10.43;5.40;;;5.20;99.90;;;;;;5042109;28;20449;-69
2023/02/13 02:55:05;;;;;;;9.17;4.80;;;5.20;99.90;;;;;;5043199;28;20527;-70
2023/02/13 02:56:51;;;;;;;9.27;5.57;;;5.10;99.90;;;;;;5042452;28;20492;-70
2023/02/13 03:07:37;;;;;;;11.07;5.40;;;5.10;99.90;;;;;;5042201;28;20476;-70
2023/02/13 03:24:38;;;;;;;7.23;5.07;;;5.00;99.90;;;;;;5036452;28;20478;-70
2023/02/13 03:30:34;;;;;;;10.37;5.77;;;4.90;99.90;;;;;;5033186;28;20450;-70
2023/02/13 03:33:27;;;;;;;9.80;5.67;;;5.00;99.90;;;;;;5025257;28;20482;-70
2023/02/13 03:39:16;;;;;;;9.10;4.50;;;4.90;99.90;;;;;;5030880;28;20450;-70
2023/02/13 03:41:57;;;;;;;9.73;5.40;;;4.80;99.90;;;;;;5040949;28;20453;-70
2023/02/13 03:44:32;;;;;;;10.80;5.77;;;4.80;99.90;;;;;;5049540;28;20488;-70
2023/02/13 03:47:00;;;;;;;11.90;6.07;;;4.90;99.90;;;;;;5061588;28;20465;-69
2023/02/13 03:52:25;;;;;;;17.07;5.73;;;4.90;99.90;;;;;;5038886;28;20466;-70
2023/02/13 04:00:34;;;;;;;10.23;6.33;;;4.80;99.90;;;;;;5027063;28;20830;-70
2023/02/13 04:03:13;;;;;;;12.90;6.13;;;4.80;99.90;;;;;;5022686;28;20545;-70
2023/02/13 04:05:46;;;;;;;13.93;6.10;;;4.80;99.90;;;;;;5034618;28;20469;-71
2023/02/13 04:08:12;;;;;;;11.87;6.83;;;4.80;99.90;;;;;;5034661;28;20472;-69
2023/02/13 04:10:47;;;;;;;13.57;6.70;;;4.80;99.90;;;;;;5039676;28;20554;-70
2023/02/13 04:13:24;;;;;;;11.53;6.37;;;4.80;99.90;;;;;;5027754;28;20279;-70
2023/02/13 04:15:56;;;;;;;12.00;5.90;;;4.80;99.90;;;;;;5027602;28;20484;-70
2023/02/13 04:18:26;;;;;;;9.40;6.07;;;4.80;99.90;;;;;;5040481;28;20832;-70
2023/02/13 04:20:52;;;;;;;11.67;5.67;;;4.70;99.90;;;;;;5027234;28;20490;-70
2023/02/13 04:23:18;;;;;;;13.50;7.40;;;4.70;99.90;;;;;;5025993;28;20492;-69
2023/02/13 04:25:49;;;;;;;17.80;7.73;;;4.80;99.90;;;;;;5022166;28;20300;-70
2023/02/13 04:28:15;;;;;;;14.20;7.60;;;4.70;99.90;;;;;;5027051;28;20453;-69
2023/02/13 04:30:40;;;;;;;16.83;7.70;;;4.70;99.90;;;;;;5041447;28;20984;-70
2023/02/13 04:33:06;;;;;;;12.40;7.20;;;4.70;99.90;;;;;;5027408;28;20226;-70
2023/02/13 04:35:32;;;;;;;11.00;6.83;;;4.70;99.90;;;;;;5031218;28;20219;-70
2023/02/13 04:37:57;;;;;;;14.10;7.70;;;4.70;99.90;;;;;;5026467;28;20260;-69
2023/02/13 04:40:23;;;;;;;12.57;6.53;;;4.60;99.90;;;;;;5025639;28;20225;-70
2023/02/13 04:42:49;;;;;;;13.30;6.60;;;4.70;99.90;;;;;;5031902;28;20219;-69
2023/02/13 04:45:15;;;;;;;11.73;7.33;;;4.60;99.90;;;;;;5027424;28;20227;-69
2023/02/13 04:47:41;;;;;;;13.47;7.20;;;4.60;99.90;;;;;;5030709;28;20457;-69
2023/02/13 04:50:07;;;;;;;15.73;7.60;;;4.60;99.90;;;;;;5029558;28;20460;-69
2023/02/13 04:52:33;;;;;;;11.30;6.27;;;4.50;99.90;;;;;;5048199;28;20242;-69
2023/02/13 04:54:59;;;;;;;12.00;6.67;;;4.60;99.90;;;;;;5032389;28;20457;-68
2023/02/13 04:57:24;;;;;;;12.93;6.63;;;4.50;99.90;;;;;;5047627;28;20305;-70
2023/02/13 04:59:50;;;;;;;16.13;7.37;;;4.50;99.90;;;;;;5031702;28;20237;-70
2023/02/13 05:02:16;;;;;;;10.40;6.60;;;4.50;99.90;;;;;;5032708;28;20318;-70
2023/02/13 05:04:41;;;;;;;13.80;7.47;;;4.40;99.90;;;;;;5047313;28;20227;-70
2023/02/13 05:07:07;;;;;;;11.90;6.60;;;4.30;99.90;;;;;;5028686;28;20282;-70
2023/02/13 05:09:32;;;;;;;13.03;7.73;;;4.40;99.90;;;;;;5044513;28;20248;-69
2023/02/13 05:11:58;;;;;;;15.53;7.90;;;4.40;99.90;;;;;;5044705;28;20246;-69
2023/02/13 05:14:24;;;;;;;13.60;7.73;;;4.40;99.90;;;;;;5031869;28;20218;-69
2023/02/13 05:16:49;;;;;;;12.77;7.20;;;4.40;99.90;;;;;;5032382;28;20230;-70
2023/02/13 05:19:15;;;;;;;12.77;7.07;;;4.30;99.90;;;;;;5048809;28;20222;-70
2023/02/13 05:24:26;;;;;;;14.07;6.97;;;4.20;99.90;;;;;;5048651;28;20469;-70
2023/02/13 05:26:51;;;;;;;18.20;7.97;;;4.30;99.90;;;;;;5049887;28;20460;-71
2023/02/13 05:29:17;;;;;;;21.10;13.70;;;4.20;99.90;;;;;;5042671;28;20273;-69
2023/02/13 05:31:43;;;;;;;17.63;13.10;;;4.30;99.90;;;;;;5030385;28;20305;-68
2023/02/13 05:34:09;;;;;;;22.47;12.67;;;4.30;99.90;;;;;;5049468;28;20222;-70
2023/02/13 05:36:34;;;;;;;16.03;11.63;;;4.20;99.90;;;;;;5050746;28;20457;-70
2023/02/13 05:39:00;;;;;;;16.67;10.60;;;4.20;99.90;;;;;;5017100;28;20219;-70
2023/02/13 05:41:26;;;;;;;18.67;9.63;;;4.30;99.90;;;;;;5034308;28;20282;-71
2023/02/13 05:43:52;;;;;;;21.83;9.37;;;4.30;99.90;;;;;;5029575;28;20218;-69
2023/02/13 05:46:17;;;;;;;16.17;8.10;;;4.30;99.90;;;;;;5026653;28;20230;-70
2023/02/13 05:48:43;;;;;;;15.37;7.57;;;4.30;99.90;;;;;;5036958;28;20230;-70
2023/02/13 05:51:09;;;;;;;21.80;8.10;;;4.30;99.90;;;;;;5042083;28;20217;-70
2023/02/13 05:53:35;;;;;;;14.43;8.53;;;4.30;99.90;;;;;;5048615;28;20218;-70
2023/02/13 05:56:02;;;;;;;14.60;7.43;;;4.30;99.90;;;;;;5048155;28;20218;-70
2023/02/13 05:58:28;;;;;;;14.50;7.77;;;4.30;99.90;;;;;;5062046;28;20464;-69
2023/02/13 06:00:58;;;;;;;10.97;7.03;;;4.20;99.90;;;;;;5032666;28;20890;-70
2023/02/13 06:03:25;;;;;;;17.53;9.10;;;4.20;99.90;;;;;;5030573;28;20215;-70
2023/02/13 06:05:52;;;;;;;14.53;7.90;;;4.20;99.90;;;;;;5032037;28;20921;-70
2023/02/13 06:08:18;;;;;;;18.60;8.47;;;4.20;99.90;;;;;;5028004;28;20455;-69
2023/02/13 06:10:44;;;;;;;13.70;6.97;;;4.10;99.90;;;;;;5031043;28;20460;-70
2023/02/13 06:13:10;;;;;;;18.50;8.20;;;4.20;99.90;;;;;;5043029;28;20217;-70
2023/02/13 06:15:36;;;;;;;14.17;7.33;;;4.10;99.90;;;;;;5026843;28;20458;-69
2023/02/13 06:18:01;;;;;;;12.20;7.83;;;4.20;99.90;;;;;;5049612;28;20232;-70
2023/02/13 06:20:27;;;;;;;15.33;8.60;;;4.10;99.90;;;;;;5038092;28;20623;-69
2023/02/13 06:22:53;;;;;;;16.57;9.17;;;4.10;99.90;;;;;;5036756;28;20238;-70
2023/02/13 06:25:19;;;;;;;15.90;8.70;;;4.10;99.90;;;;;;5052384;28;20244;-70
2023/02/13 06:27:46;;;;;;;15.67;7.40;;;4.10;99.90;;;;;;5051038;28;20221;-70
2023/02/13 06:30:12;;;;;;;16.53;9.17;;;4.00;99.90;;;;;;5027827;28;20460;-71
2023/02/13 06:32:38;;;;;;;18.17;9.10;;;4.00;99.90;;;;;;5050588;28;20510;-70
2023/02/13 06:35:05;;;;;;;13.47;7.67;;;4.00;99.90;;;;;;5048619;28;20485;-70
2023/02/13 06:37:30;;;;;;;15.30;8.73;;;4.10;99.90;;;;;;5025601;28;20826;-70
2023/02/13 06:39:56;;;;;;;12.27;7.90;;;4.10;99.90;;;;;;5050440;28;20445;-70
2023/02/13 06:42:21;;;;;;;19.50;9.53;;;4.10;99.90;;;;;;5034297;28;20322;-68
2023/02/13 06:44:47;;;;;;;13.47;8.70;;;4.10;99.90;;;;;;5024139;28;20231;-70
2023/02/13 06:47:13;;;;;;;19.23;8.40;;;4.10;99.90;;;;;;5050093;28;20214;-68
2023/02/13 06:49:39;;;;;;;18.87;9.07;;;4.10;99.90;;;;;;5038570;28;20234;-70
2023/02/13 06:52:04;;;;;;;14.43;9.10;;;4.10;99.90;;;;;;5031432;28;20737;-70
2023/02/13 06:54:30;;;;;;;16.47;8.87;;;3.90;99.90;;;;;;5026923;28;20599;-70
2023/02/13 06:56:56;;;;;;;18.87;8.27;;;4.00;99.90;;;;;;5049119;28;20227;-68
2023/02/13 06:59:21;;;;;;;18.03;9.33;;;4.00;99.90;;;;;;5040789;28;20220;-70
2023/02/13 07:01:47;;;;;;;16.30;10.50;;;4.00;99.90;;;;;;5024974;28;20215;-70
2023/02/13 07:04:13;;;;;;;17.80;9.47;;;3.90;99.90;;;;;;5046871;28;20247;-70
2023/02/13 07:06:38;;;;;;;16.27;9.67;;;4.00;99.90;;;;;;5041137;28;20664;-70
2023/02/13 07:09:04;;;;;;;21.70;10.47;;;4.00;99.90;;;;;;5019783;28;20223;-70
2023/02/13 07:11:30;;;;;;;18.60;9.07;;;4.00;99.90;;;;;;5023727;28;20217;-69
2023/02/13 07:13:56;;;;;;;17.77;9.97;;;4.00;99.90;;;;;;5042242;28;20230;-70
2023/02/13 07:16:22;;;;;;;19.00;9.70;;;4.00;99.90;;;;;;5024191;28;20458;-68
2023/02/13 07:18:47;;;;;;;20.17;10.10;;;4.00;99.90;;;;;;5025149;28;20219;-71
2023/02/13 07:21:13;;;;;;;12.67;8.43;;;4.00;99.90;;;;;;5045328;28;20238;-70
2023/02/13 07:23:39;;;;;;;21.03;10.70;;;4.00;99.90;;;;;;5029014;28;20219;-70
2023/02/13 07:26:05;;;;;;;24.57;11.10;;;4.00;99.90;;;;;;5050752;28;20223;-69
2023/02/13 07:28:31;;;;;;;14.30;8.37;;;4.00;99.90;;;;;;5037291;28;20230;-70
2023/02/13 07:31:02;;;;;;;15.17;9.63;;;4.00;99.90;;;;;;5046059;28;20282;-70
2023/02/13 07:33:27;;;;;;;14.17;7.80;;;4.10;99.90;;;;;;5032514;28;20460;-69
2023/02/13 07:35:53;;;;;;;14.53;9.87;;;4.10;99.90;;;;;;5034143;28;20468;-70
2023/02/13 07:38:19;;;;;;;16.73;9.70;;;4.10;99.90;;;;;;5025797;28;20268;-70
2023/02/13 07:40:45;;;;;;;18.57;9.00;;;4.10;99.90;;;;;;5049579;28;20214;-70
2023/02/13 07:43:12;;;;;;;16.30;9.60;;;4.10;99.90;;;;;;5040576;28;20284;-70
2023/02/13 07:45:37;;;;;;;22.90;9.10;;;4.20;99.90;;;;;;5046658;28;20457;-68
2023/02/13 07:48:03;;;;;;;19.37;9.83;;;4.20;99.90;;;;;;5032648;28;20817;-69
2023/02/13 07:50:29;;;;;;;19.43;10.30;;;4.20;99.90;;;;;;5023641;28;20596;-70
2023/02/13 07:52:56;;;;;;;14.37;9.70;;;4.20;99.90;;;;;;5045263;28;20253;-70
2023/02/13 07:55:22;;;;;;;17.83;8.83;;;4.20;99.90;;;;;;5032700;28;20238;-69
2023/02/13 07:57:49;;;;;;;15.97;9.67;;;4.20;99.90;;;;;;5041740;28;20547;-69
2023/02/13 08:00:15;;;;;;;17.83;10.10;;;4.30;99.90;;;;;;5032130;28;20258;-70
2023/02/13 08:02:41;;;;;;;16.63;8.23;;;4.30;99.90;;;;;;5021834;28;20465;-69
2023/02/13 08:05:07;;;;;;;20.83;8.47;;;4.30;99.90;;;;;;5046169;28;20466;-70
2023/02/13 08:07:34;;;;;;;15.93;8.63;;;4.40;99.90;;;;;;5045429;28;20218;-71
2023/02/13 08:12:44;;;;;;;12.47;7.80;;;4.50;99.90;;;;;;5038521;28;20427;-69
2023/02/13 08:15:14;;;;;;;17.17;9.30;;;4.50;99.90;;;;;;5028729;28;20535;-69
2023/02/13 08:17:40;;;;;;;19.60;8.77;;;4.60;99.90;;;;;;5045340;28;20473;-70
2023/02/13 08:20:07;;;;;;;12.77;7.40;;;4.70;99.90;;;;;;5032436;28;20454;-70
2023/02/13 08:22:37;;;;;;;13.50;8.47;;;4.70;99.90;;;;;;5030565;28;20239;-70
2023/02/13 08:25:04;;;;;;;13.47;8.20;;;4.70;99.90;;;;;;5053124;28;20545;-68
2023/02/13 08:27:29;;;;;;;14.87;8.30;;;4.80;99.90;;;;;;5029962;28;20480;-71
2023/02/13 08:29:59;;;;;;;16.87;8.73;;;4.90;99.90;;;;;;5020363;28;20473;-70
2023/02/13 08:32:25;;;;;;;15.80;8.00;;;5.00;99.90;;;;;;5046863;28;20219;-68
2023/02/13 08:34:50;;;;;;;16.83;9.10;;;5.00;99.90;;;;;;5030610;28;20453;-71
2023/02/13 08:37:17;;;;;;;16.53;8.50;;;5.00;99.90;;;;;;5039585;28;20240;-68
2023/02/13 08:39:43;;;;;;;16.67;8.80;;;5.10;99.90;;;;;;5029902;28;20276;-70
2023/02/13 08:42:08;;;;;;;15.00;8.17;;;5.20;99.90;;;;;;5026870;28;20809;-70
2023/02/13 08:44:34;;;;;;;16.13;8.40;;;5.20;99.90;;;;;;5022827;28;20500;-71
2023/02/13 08:47:03;;;;;;;17.70;9.47;;;5.30;99.90;;;;;;5046784;28;20233;-70
2023/02/13 08:49:32;;;;;;;20.40;10.73;;;5.40;99.90;;;;;;5043479;28;20230;-71
2023/02/13 08:52:00;;;;;;;18.63;9.40;;;5.40;99.90;;;;;;5027192;28;20454;-70
2023/02/13 08:54:26;;;;;;;17.80;9.47;;;5.50;99.90;;;;;;5046047;28;20462;-68
2023/02/13 08:56:53;;;;;;;14.83;8.50;;;5.60;99.90;;;;;;5046795;28;21076;-71
2023/02/13 08:59:19;;;;;;;21.70;9.57;;;5.60;99.90;;;;;;5048893;28;20457;-70
2023/02/13 09:01:45;;;;;;;19.30;10.17;;;5.70;99.90;;;;;;5026625;28;20456;-69
2023/02/13 09:04:14;;;;;;;18.50;8.80;;;5.80;99.90;;;;;;5047723;28;20515;-69
2023/02/13 09:06:41;;;;;;;15.50;8.50;;;5.90;99.90;;;;;;5036147;28;20470;-69
2023/02/13 09:09:06;;;;;;;22.73;9.87;;;6.00;99.90;;;;;;5021165;28;21057;-70
2023/02/13 09:11:32;;;;;;;16.50;8.57;;;6.00;99.90;;;;;;5031661;28;20536;-69
2023/02/13 09:13:58;;;;;;;15.30;8.93;;;6.10;99.90;;;;;;5046051;28;20254;-68
2023/02/13 09:16:24;;;;;;;20.53;8.97;;;6.10;99.90;;;;;;5038044;28;20264;-69
2023/02/13 09:18:50;;;;;;;17.13;8.40;;;6.10;99.90;;;;;;5042181;28;20589;-70
2023/02/13 09:21:18;;;;;;;19.13;8.80;;;6.20;99.90;;;;;;5049771;28;20235;-70
2023/02/13 09:23:44;;;;;;;16.00;9.00;;;6.20;99.90;;;;;;5043767;28;20433;-68
2023/02/13 09:26:12;;;;;;;12.83;8.10;;;6.30;99.90;;;;;;5044566;28;20485;-68
2023/02/13 09:28:39;;;;;;;15.43;8.60;;;6.50;99.90;;;;;;5036141;28;20230;-69
2023/02/13 09:31:16;;;;;;;15.60;7.70;;;6.60;99.90;;;;;;5025823;28;20466;-69
2023/02/13 09:33:44;;;;;;;14.57;8.80;;;6.70;99.90;;;;;;5025139;28;20462;-70
2023/02/13 09:36:13;;;;;;;18.27;8.60;;;6.70;99.90;;;;;;5034659;28;21010;-69
2023/02/13 09:38:42;;;;;;;17.83;8.30;;;6.70;99.90;;;;;;5032718;28;20492;-69
2023/02/13 09:41:18;;;;;;;14.43;8.50;;;6.80;99.90;;;;;;5037484;28;20458;-69
2023/02/13 09:44:06;;;;;;;17.87;8.80;;;6.80;99.90;;;;;;5013875;28;20445;-71
2023/02/13 09:46:37;;;;;;;13.93;8.80;;;7.10;99.90;;;;;;5043658;28;20465;-70
2023/02/13 09:49:18;;;;;;;16.53;9.30;;;7.20;99.90;;;;;;5039775;28;20457;-70
2023/02/13 09:51:45;;;;;;;17.67;9.07;;;7.20;99.90;;;;;;5016818;28;20473;-70
2023/02/13 09:54:15;;;;;;;17.50;9.20;;;7.20;99.90;;;;;;5043187;28;20457;-71
2023/02/13 09:56:59;;;;;;;17.30;8.47;;;7.30;99.90;;;;;;5025232;28;20457;-71
2023/02/13 10:00:02;;;;;;;14.03;8.77;;;7.50;99.90;;;;;;5038951;28;20490;-70
2023/02/13 10:02:56;;;;;;;15.63;8.27;;;7.70;99.90;;;;;;5041896;28;20475;-70
2023/02/13 10:05:56;;;;;;;15.33;9.20;;;7.80;99.90;;;;;;5053722;28;20947;-70
2023/02/13 10:09:05;;;;;;;15.57;8.67;;;7.90;99.90;;;;;;4993386;28;20455;-68
2023/02/13 10:12:06;;;;;;;12.07;7.87;;;7.90;99.90;;;;;;5027650;28;20453;-70
2023/02/13 10:14:43;;;;;;;21.10;10.40;;;8.00;99.90;;;;;;5025700;28;20461;-70
2023/02/13 10:17:23;;;;;;;14.87;9.80;;;8.10;99.90;;;;;;5039052;28;20446;-70
2023/02/13 10:20:01;;;;;;;15.10;8.33;;;8.00;99.90;;;;;;5040109;28;20452;-70
2023/02/13 10:22:45;;;;;;;16.53;9.23;;;8.10;99.90;;;;;;5021168;28;20551;-70
2023/02/13 10:25:16;;;;;;;15.00;8.07;;;8.20;99.90;;;;;;5029282;28;20473;-70
2023/02/13 10:28:03;;;;;;;20.83;11.10;;;8.30;99.90;;;;;;5022007;28;20487;-70
2023/02/13 10:30:45;;;;;;;15.83;10.10;;;8.30;99.90;;;;;;5027930;28;20466;-71
2023/02/13 10:33:20;;;;;;;22.97;10.13;;;8.50;99.90;;;;;;5040291;28;20881;-71
2023/02/13 10:36:10;;;;;;;16.97;9.77;;;8.50;99.90;;;;;;5021716;28;20874;-70
2023/02/13 10:39:04;;;;;;;19.73;11.00;;;9.00;99.90;;;;;;5027634;28;20457;-71
2023/02/13 10:41:49;;;;;;;16.53;8.60;;;9.10;99.90;;;;;;5016812;28;20458;-71
2023/02/13 10:44:35;;;;;;;25.40;12.77;;;9.00;99.90;;;;;;5034249;28;20466;-70
2023/02/13 10:47:29;;;;;;;23.93;12.70;;;9.00;99.90;;;;;;5045563;28;20536;-70
2023/02/13 10:50:00;;;;;;;30.43;12.90;;;9.10;99.90;;;;;;5043384;28;21045;-70
2023/02/13 10:52:37;;;;;;;23.70;13.20;;;9.00;99.90;;;;;;5031034;28;20479;-71
2023/02/13 10:55:28;;;;;;;25.83;12.50;;;9.10;99.90;;;;;;5039700;28;20457;-69
2023/02/13 10:58:06;;;;;;;22.23;10.13;;;9.60;99.90;;;;;;5027111;28;20541;-70
2023/02/13 11:00:36;;;;;;;17.00;9.40;;;9.90;99.90;;;;;;5037390;28;20507;-68
2023/02/13 11:03:01;;;;;;;17.20;11.17;;;9.80;99.90;;;;;;5035563;28;20535;-69
2023/02/13 11:05:36;;;;;;;20.53;12.80;;;9.60;99.90;;;;;;5024889;28;20470;-71
2023/02/13 11:08:03;;;;;;;20.40;12.07;;;9.70;99.90;;;;;;5017717;28;20249;-70
2023/02/13 11:10:28;;;;;;;16.63;9.47;;;9.60;99.90;;;;;;5035876;28;20549;-70
2023/02/13 11:12:54;;;;;;;14.73;8.63;;;9.50;99.90;;;;;;5026900;28;20604;-69
2023/02/13 11:15:22;;;;;;;14.07;8.73;;;9.50;99.90;;;;;;5020098;28;20276;-70
2023/02/13 11:17:49;;;;;;;14.80;9.00;;;9.50;99.90;;;;;;5033833;28;20224;-69
2023/02/13 11:20:46;;;;;;;13.13;8.37;;;9.40;99.90;;;;;;5026933;28;20458;-70
2023/02/13 11:23:41;;;;;;;14.73;9.07;;;9.60;99.90;;;;;;5029723;28;20470;-69
2023/02/13 11:26:27;;;;;;;16.43;9.13;;;9.50;99.90;;;;;;4993564;28;20474;-69
2023/02/13 11:28:59;;;;;;;15.80;8.70;;;9.40;99.90;;;;;;5023829;28;20477;-70
2023/02/13 11:31:28;;;;;;;11.80;8.43;;;9.50;99.90;;;;;;5028136;28;20461;-71
2023/02/13 11:33:55;;;;;;;16.83;9.30;;;9.80;99.90;;;;;;5019959;28;20465;-69
2023/02/13 11:36:27;;;;;;;17.87;9.47;;;9.80;99.90;;;;;;5022326;28;20827;-69
2023/02/13 11:39:01;;;;;;;13.83;8.87;;;9.70;99.90;;;;;;5034791;28;20458;-70
2023/02/13 11:41:28;;;;;;;15.07;8.93;;;9.60;99.90;;;;;;5033770;28;20509;-70
2023/02/13 11:44:03;;;;;;;17.27;10.10;;;9.90;99.90;;;;;;5026673;28;20479;-69
2023/02/13 11:47:02;;;;;;;17.23;9.43;;;10.10;99.90;;;;;;5019370;28;20477;-71
2023/02/13 11:49:34;;;;;;;17.73;9.87;;;10.40;99.90;;;;;;5028390;28;20551;-69
2023/02/13 11:52:05;;;;;;;17.03;10.00;;;10.40;99.90;;;;;;5019857;28;20931;-71
2023/02/13 11:54:55;;;;;;;17.90;8.93;;;10.70;99.90;;;;;;5042748;28;20466;-69
2023/02/13 11:57:54;;;;;;;14.47;8.27;;;11.00;99.90;;;;;;5043778;28;20470;-70
2023/02/13 12:00:26;;;;;;;16.70;8.53;;;11.20;99.90;;;;;;5031760;28;20447;-70
2023/02/13 12:02:52;;;;;;;12.43;8.07;;;11.20;99.90;;;;;;5035801;28;20491;-70
2023/02/13 12:05:22;;;;;;;14.33;7.90;;;11.20;99.90;;;;;;5036290;28;20577;-69
2023/02/13 12:07:48;;;;;;;15.70;8.00;;;11.00;99.90;;;;;;5037253;28;20223;-70
2023/02/13 12:10:22;;;;;;;12.57;8.00;;;11.10;99.90;;;;;;5016506;28;20463;-69
2023/02/13 12:12:59;;;;;;;15.47;7.90;;;11.00;99.90;;;;;;5033611;28;20473;-71
2023/02/13 12:15:26;;;;;;;14.00;7.60;;;11.10;99.90;;;;;;5033689;28;20470;-71
2023/02/13 12:18:20;;;;;;;14.87;6.77;;;11.00;99.90;;;;;;5035747;28;20958;-69
2023/02/13 12:21:01;;;;;;;10.07;6.53;;;10.80;99.90;;;;;;5029537;28;20974;-71
2023/02/13 12:24:11;;;;;;;13.97;7.00;;;10.80;99.90;;;;;;5027964;28;20512;-70
2023/02/13 12:26:48;;;;;;;12.70;7.43;;;11.10;99.90;;;;;;5012086;28;21055;-70
2023/02/13 12:29:26;;;;;;;13.13;8.53;;;10.90;99.90;;;;;;5033195;28;20493;-71
2023/02/13 12:32:12;;;;;;;14.60;8.90;;;10.80;99.90;;;;;;5029046;28;20554;-70
2023/02/13 12:34:59;;;;;;;13.90;7.50;;;10.70;99.90;;;;;;5039215;28;20454;-71
2023/02/13 12:37:59;;;;;;;12.13;8.20;;;10.70;99.90;;;;;;5034650;28;20478;-69
2023/02/13 12:40:43;;;;;;;16.00;8.43;;;10.80;99.90;;;;;;5036361;28;20474;-72
2023/02/13 12:43:17;;;;;;;13.80;7.40;;;11.10;99.90;;;;;;5034320;28;20582;-71
2023/02/13 12:46:06;;;;;;;13.50;7.37;;;11.10;99.90;;;;;;5039306;28;20473;-70
2023/02/13 12:48:48;;;;;;;16.23;7.80;;;11.20;99.90;;;;;;5033120;28;20511;-70
2023/02/13 12:51:51;;;;;;;11.67;8.07;;;11.10;99.90;;;;;;5015915;28;20480;-69
2023/02/13 12:54:38;;;;;;;15.43;8.17;;;11.20;99.90;;;;;;4986515;28;20474;-71
2023/02/13 12:57:18;;;;;;;11.93;8.00;;;11.40;99.90;;;;;;5040974;28;20461;-70
2023/02/13 13:00:18;;;;;;;15.10;9.10;;;11.10;99.90;;;;;;5026013;28;20474;-70
2023/02/13 13:03:05;;;;;;;13.33;9.43;;;11.10;99.90;;;;;;5039621;28;20467;-71
2023/02/13 13:06:04;;;;;;;21.37;10.77;;;11.40;99.90;;;;;;5036023;28;20511;-71
2023/02/13 13:08:48;;;;;;;17.90;10.83;;;11.60;99.90;;;;;;5038656;28;20462;-71
2023/02/13 13:11:14;;;;;;;22.70;13.00;;;11.90;99.90;;;;;;5025662;28;20584;-69
2023/02/13 13:13:46;;;;;;;39.87;24.87;;;11.80;99.90;;;;;;5037499;28;20839;-69
2023/02/13 13:17:03;;;;;;;17.33;13.10;;;11.90;99.90;;;;;;5025517;28;20223;-71
2023/02/13 13:20:07;;;;;;;15.97;9.97;;;11.40;99.90;;;;;;4971868;28;20463;-71
2023/02/13 13:22:37;;;;;;;13.40;9.40;;;11.10;99.90;;;;;;4992633;28;20463;-70
2023/02/13 13:25:28;;;;;;;15.30;8.63;;;11.40;99.90;;;;;;5005771;28;21014;-70
2023/02/13 13:28:13;;;;;;;11.47;8.57;;;11.60;99.90;;;;;;5025607;28;20468;-71
2023/02/13 13:30:40;;;;;;;13.90;8.63;;;11.70;99.90;;;;;;5040923;28;20537;-69
2023/02/13 13:33:23;;;;;;;12.10;8.63;;;11.90;99.90;;;;;;5037269;28;20862;-69
2023/02/13 13:36:20;;;;;;;11.07;7.33;;;11.90;99.90;;;;;;5022517;28;20502;-70
2023/02/13 13:38:52;;;;;;;10.80;6.77;;;11.80;99.90;;;;;;5034092;28;20451;-70
2023/02/13 13:41:34;;;;;;;12.97;6.87;;;11.50;99.90;;;;;;5038312;28;20497;-71
2023/02/13 13:44:29;;;;;;;8.10;6.53;;;11.30;99.90;;;;;;5037298;28;20454;-70
2023/02/13 13:47:06;;;;;;;11.00;6.80;;;11.20;99.90;;;;;;5027916;28;20482;-70
2023/02/13 13:49:50;;;;;;;8.67;6.23;;;11.60;99.90;;;;;;5018910;28;20545;-70
2023/02/13 13:52:21;;;;;;;11.57;7.30;;;11.80;99.90;;;;;;5022237;28;20446;-71
2023/02/13 13:54:50;;;;;;;10.53;5.63;;;11.90;99.90;;;;;;5038995;28;20473;-70
2023/02/13 13:57:24;;;;;;;13.53;6.23;;;12.30;99.90;;;;;;5029341;28;20471;-70
2023/02/13 14:00:18;;;;;;;8.30;4.90;;;12.50;99.90;;;;;;5034972;28;20989;-72